OCN301 ENEV-EDDF
Flight info
| Callsign | OCN301 |
|---|---|
| Flight time | 3h 43m |
| Altitude | 36000 |
| Route | AMIMO DCT NETAV DCT MASEV DCT LOMPU DCT MICOS DCT OBATU DCT RIMET T157 KERAX KERAX5D |
| Aircraft | A320/M-SDE3FGHIRWY/LB1 |
Departure
| Time | 2026-05-07 20:46 |
|---|---|
| Airport | Harstad/Narvik Airport (ENEV) |
Arrival
| Time | 2026-05-08 00:29 |
|---|---|
| Airport | Frankfurt Main Airport (EDDF) |
| Time | Latitude | Longitude | Altitude | Speed | Heading |
|---|---|---|---|---|---|
| 2026-05-07 20:34 | 68.48973 | 16.68420 | 71 ft | 0 kts | 43° |
| 2026-05-07 20:35 | 68.48972 | 16.68418 | 71 ft | 1 kts | 43° |
| 2026-05-07 20:36 | 68.48962 | 16.68392 | 71 ft | 2 kts | 43° |
| 2026-05-07 20:36 | 68.48951 | 16.68364 | 71 ft | 2 kts | 43° |
| 2026-05-07 20:36 | 68.48940 | 16.68337 | 71 ft | 2 kts | 43° |
| 2026-05-07 20:36 | 68.48930 | 16.68310 | 71 ft | 2 kts | 43° |
| 2026-05-07 20:37 | 68.48922 | 16.68292 | 71 ft | 2 kts | 44° |
| 2026-05-07 20:37 | 68.48910 | 16.68276 | 71 ft | 2 kts | 355° |
| 2026-05-07 20:37 | 68.48896 | 16.68291 | 71 ft | 2 kts | 313° |
| 2026-05-07 20:37 | 68.48889 | 16.68324 | 71 ft | 0 kts | 274° |
| 2026-05-07 20:38 | 68.48890 | 16.68341 | 71 ft | 1 kts | 266° |
| 2026-05-07 20:38 | 68.48890 | 16.68347 | 71 ft | 0 kts | 268° |
| 2026-05-07 20:42 | 68.48890 | 16.68345 | 71 ft | 0 kts | 268° |
| 2026-05-07 20:42 | 68.48891 | 16.68273 | 71 ft | 6 kts | 284° |
| 2026-05-07 20:42 | 68.48952 | 16.68196 | 71 ft | 14 kts | 358° |
| 2026-05-07 20:43 | 68.49078 | 16.68184 | 71 ft | 22 kts | 358° |
| 2026-05-07 20:43 | 68.49258 | 16.68165 | 71 ft | 29 kts | 358° |
| 2026-05-07 20:43 | 68.49458 | 16.68139 | 71 ft | 28 kts | 358° |
| 2026-05-07 20:43 | 68.49654 | 16.68116 | 68 ft | 28 kts | 358° |
| 2026-05-07 20:44 | 68.49849 | 16.68096 | 68 ft | 27 kts | 358° |
| 2026-05-07 20:44 | 68.50035 | 16.68073 | 68 ft | 26 kts | 358° |
| 2026-05-07 20:44 | 68.50216 | 16.68051 | 68 ft | 25 kts | 358° |
| 2026-05-07 20:44 | 68.50358 | 16.68000 | 68 ft | 15 kts | 326° |
| 2026-05-07 20:45 | 68.50380 | 16.67741 | 69 ft | 10 kts | 258° |
| 2026-05-07 20:45 | 68.50320 | 16.67675 | 68 ft | 11 kts | 177° |
| 2026-05-07 20:45 | 68.50089 | 16.67703 | 68 ft | 68 kts | 178° |
| 2026-05-07 20:45 | 68.49378 | 16.67785 | 68 ft | 134 kts | 178° |
| 2026-05-07 20:46 | 68.48270 | 16.67918 | 205 ft | 176 kts | 179° |
| 2026-05-07 20:46 | 68.47076 | 16.68058 | 961 ft | 174 kts | 177° |
| 2026-05-07 20:46 | 68.45894 | 16.68228 | 1806 ft | 172 kts | 177° |
| 2026-05-07 20:46 | 68.44701 | 16.68402 | 2357 ft | 180 kts | 177° |
| 2026-05-07 20:47 | 68.43428 | 16.69000 | 2739 ft | 196 kts | 157° |
| 2026-05-07 20:47 | 68.42261 | 16.71160 | 3120 ft | 214 kts | 141° |
| 2026-05-07 20:47 | 68.41067 | 16.73922 | 3480 ft | 236 kts | 140° |
| 2026-05-07 20:47 | 68.39786 | 16.76935 | 3979 ft | 253 kts | 140° |
| 2026-05-07 20:48 | 68.38446 | 16.80077 | 4706 ft | 260 kts | 140° |
| 2026-05-07 20:48 | 68.37079 | 16.83262 | 5533 ft | 264 kts | 141° |
| 2026-05-07 20:48 | 68.35682 | 16.86476 | 6330 ft | 268 kts | 143° |
| 2026-05-07 20:48 | 68.34041 | 16.88706 | 7063 ft | 270 kts | 172° |
| 2026-05-07 20:49 | 68.32213 | 16.88422 | 7914 ft | 268 kts | 199° |
| 2026-05-07 20:49 | 68.30492 | 16.86648 | 8768 ft | 269 kts | 203° |
| 2026-05-07 20:49 | 68.28748 | 16.84827 | 9572 ft | 273 kts | 202° |
| 2026-05-07 20:49 | 68.26977 | 16.83008 | 10375 ft | 277 kts | 202° |
| 2026-05-07 20:50 | 68.25163 | 16.81165 | 10991 ft | 286 kts | 202° |
| 2026-05-07 20:50 | 68.23290 | 16.79275 | 11697 ft | 292 kts | 202° |
| 2026-05-07 20:50 | 68.21393 | 16.77374 | 12488 ft | 295 kts | 202° |
| 2026-05-07 20:50 | 68.19476 | 16.75463 | 13243 ft | 298 kts | 202° |
| 2026-05-07 20:51 | 68.17541 | 16.73537 | 13989 ft | 301 kts | 202° |
| 2026-05-07 20:51 | 68.15587 | 16.71600 | 14711 ft | 303 kts | 202° |
| 2026-05-07 20:51 | 68.13616 | 16.69650 | 15438 ft | 306 kts | 202° |
| 2026-05-07 20:51 | 68.11626 | 16.67687 | 16110 ft | 308 kts | 202° |
| 2026-05-07 20:52 | 68.09621 | 16.65710 | 16798 ft | 311 kts | 202° |
| 2026-05-07 20:52 | 68.07600 | 16.63718 | 17453 ft | 314 kts | 202° |
| 2026-05-07 20:52 | 68.05557 | 16.61710 | 18078 ft | 317 kts | 201° |
| 2026-05-07 20:52 | 68.03494 | 16.59688 | 18707 ft | 320 kts | 201° |
| 2026-05-07 20:53 | 68.01412 | 16.57651 | 19320 ft | 323 kts | 201° |
| 2026-05-07 20:53 | 67.99308 | 16.55598 | 19901 ft | 326 kts | 201° |
| 2026-05-07 20:53 | 67.97183 | 16.53529 | 20464 ft | 329 kts | 201° |
| 2026-05-07 20:53 | 67.95035 | 16.51442 | 21013 ft | 333 kts | 201° |
| 2026-05-07 20:54 | 67.92864 | 16.49337 | 21555 ft | 336 kts | 202° |
| 2026-05-07 20:54 | 67.90672 | 16.47214 | 22088 ft | 339 kts | 202° |
| 2026-05-07 20:54 | 67.88459 | 16.45096 | 22614 ft | 342 kts | 200° |
| 2026-05-07 20:54 | 67.86182 | 16.43273 | 23111 ft | 346 kts | 197° |
| 2026-05-07 20:55 | 67.83849 | 16.41734 | 23606 ft | 349 kts | 196° |
| 2026-05-07 20:55 | 67.81496 | 16.40177 | 24086 ft | 352 kts | 196° |
| 2026-05-07 20:55 | 67.79122 | 16.38606 | 24547 ft | 356 kts | 196° |
| 2026-05-07 20:55 | 67.76727 | 16.37029 | 25003 ft | 359 kts | 196° |
| 2026-05-07 20:56 | 67.74313 | 16.35442 | 25444 ft | 361 kts | 196° |
| 2026-05-07 20:56 | 67.71877 | 16.33845 | 25841 ft | 365 kts | 195° |
| 2026-05-07 20:56 | 67.69418 | 16.32239 | 26217 ft | 368 kts | 195° |
| 2026-05-07 20:56 | 67.66940 | 16.30624 | 26595 ft | 371 kts | 195° |
| 2026-05-07 20:57 | 67.64443 | 16.28998 | 26944 ft | 373 kts | 195° |
| 2026-05-07 20:57 | 67.61927 | 16.27364 | 27260 ft | 376 kts | 195° |
| 2026-05-07 20:57 | 67.59392 | 16.25722 | 27567 ft | 379 kts | 195° |
| 2026-05-07 20:57 | 67.56838 | 16.24072 | 27861 ft | 382 kts | 196° |
| 2026-05-07 20:58 | 67.54265 | 16.22415 | 28157 ft | 384 kts | 196° |
| 2026-05-07 20:58 | 67.51675 | 16.20749 | 28448 ft | 387 kts | 196° |
| 2026-05-07 20:58 | 67.49070 | 16.19078 | 28733 ft | 389 kts | 196° |
| 2026-05-07 20:58 | 67.46449 | 16.17400 | 29021 ft | 391 kts | 196° |
| 2026-05-07 20:59 | 67.43813 | 16.15717 | 29292 ft | 394 kts | 196° |
| 2026-05-07 20:59 | 67.41164 | 16.14028 | 29567 ft | 396 kts | 196° |
| 2026-05-07 20:59 | 67.38500 | 16.12333 | 29832 ft | 398 kts | 196° |
| 2026-05-07 20:59 | 67.35823 | 16.10635 | 30091 ft | 399 kts | 196° |
| 2026-05-07 21:00 | 67.33133 | 16.08933 | 30342 ft | 401 kts | 197° |
| 2026-05-07 21:00 | 67.30428 | 16.07223 | 30576 ft | 404 kts | 197° |
| 2026-05-07 21:00 | 67.27707 | 16.05508 | 30799 ft | 406 kts | 197° |
| 2026-05-07 21:00 | 67.24967 | 16.03786 | 31005 ft | 409 kts | 197° |
| 2026-05-07 21:01 | 67.22212 | 16.02057 | 31176 ft | 411 kts | 197° |
| 2026-05-07 21:01 | 67.19443 | 16.00324 | 31350 ft | 413 kts | 197° |
| 2026-05-07 21:01 | 67.16657 | 15.98587 | 31522 ft | 415 kts | 197° |
| 2026-05-07 21:01 | 67.13864 | 15.96847 | 31700 ft | 416 kts | 197° |
| 2026-05-07 21:02 | 67.11062 | 15.95106 | 31873 ft | 418 kts | 197° |
| 2026-05-07 21:02 | 67.08250 | 15.93365 | 32046 ft | 419 kts | 197° |
| 2026-05-07 21:02 | 67.05431 | 15.91624 | 32224 ft | 420 kts | 197° |
| 2026-05-07 21:02 | 67.02607 | 15.89884 | 32409 ft | 420 kts | 197° |
| 2026-05-07 21:03 | 66.99773 | 15.88140 | 32603 ft | 422 kts | 197° |
| 2026-05-07 21:03 | 66.96933 | 15.86395 | 32782 ft | 423 kts | 197° |
| 2026-05-07 21:03 | 66.94083 | 15.84650 | 32957 ft | 425 kts | 197° |
| 2026-05-07 21:03 | 66.91223 | 15.82902 | 33126 ft | 426 kts | 197° |
| 2026-05-07 21:04 | 66.88355 | 15.81154 | 33293 ft | 428 kts | 197° |
| 2026-05-07 21:04 | 66.85474 | 15.79403 | 33457 ft | 429 kts | 197° |
| 2026-05-07 21:04 | 66.82584 | 15.77650 | 33655 ft | 431 kts | 197° |
| 2026-05-07 21:04 | 66.79683 | 15.75895 | 33849 ft | 432 kts | 197° |
| 2026-05-07 21:05 | 66.76771 | 15.74137 | 34044 ft | 434 kts | 197° |
| 2026-05-07 21:05 | 66.73849 | 15.72377 | 34232 ft | 435 kts | 197° |
| 2026-05-07 21:05 | 66.70916 | 15.70615 | 34404 ft | 437 kts | 197° |
| 2026-05-07 21:05 | 66.67973 | 15.68850 | 34572 ft | 438 kts | 197° |
| 2026-05-07 21:06 | 66.65019 | 15.67086 | 34741 ft | 440 kts | 197° |
| 2026-05-07 21:06 | 66.62056 | 15.65320 | 34906 ft | 441 kts | 197° |
| 2026-05-07 21:06 | 66.59083 | 15.63553 | 35057 ft | 442 kts | 197° |
| 2026-05-07 21:06 | 66.56102 | 15.61785 | 35211 ft | 444 kts | 197° |
| 2026-05-07 21:07 | 66.53113 | 15.60014 | 35350 ft | 445 kts | 197° |
| 2026-05-07 21:07 | 66.50113 | 15.58244 | 35479 ft | 446 kts | 197° |
| 2026-05-07 21:07 | 66.47104 | 15.56471 | 35597 ft | 448 kts | 197° |
| 2026-05-07 21:07 | 66.44083 | 15.54695 | 35705 ft | 449 kts | 197° |
| 2026-05-07 21:08 | 66.41052 | 15.52921 | 35817 ft | 451 kts | 197° |
| 2026-05-07 21:08 | 66.38013 | 15.51148 | 35932 ft | 452 kts | 197° |
| 2026-05-07 21:08 | 66.34968 | 15.49374 | 36043 ft | 453 kts | 197° |
| 2026-05-07 21:09 | 66.28856 | 15.45825 | 36073 ft | 454 kts | 197° |
| 2026-05-07 21:09 | 66.22737 | 15.42294 | 36081 ft | 454 kts | 197° |
| 2026-05-07 21:10 | 66.16626 | 15.38780 | 36086 ft | 454 kts | 197° |
| 2026-05-07 21:10 | 66.10511 | 15.35284 | 36093 ft | 453 kts | 197° |
| 2026-05-07 21:11 | 66.04398 | 15.31802 | 36089 ft | 454 kts | 196° |
| 2026-05-07 21:11 | 65.95220 | 15.26609 | 36093 ft | 453 kts | 197° |
| 2026-05-07 21:12 | 65.89117 | 15.23177 | 36106 ft | 453 kts | 197° |
| 2026-05-07 21:12 | 65.83003 | 15.19756 | 36136 ft | 454 kts | 197° |
| 2026-05-07 21:13 | 65.76884 | 15.16350 | 36153 ft | 454 kts | 197° |
| 2026-05-07 21:13 | 65.70768 | 15.12959 | 36157 ft | 454 kts | 197° |
| 2026-05-07 21:14 | 65.64650 | 15.09586 | 36152 ft | 453 kts | 197° |
| 2026-05-07 21:14 | 65.58539 | 15.06233 | 36140 ft | 453 kts | 197° |
| 2026-05-07 21:15 | 65.52430 | 15.02895 | 36124 ft | 453 kts | 197° |
| 2026-05-07 21:15 | 65.46315 | 14.99571 | 36108 ft | 453 kts | 197° |
| 2026-05-07 21:16 | 65.40198 | 14.96264 | 36103 ft | 453 kts | 197° |
| 2026-05-07 21:16 | 65.34086 | 14.92975 | 36117 ft | 453 kts | 197° |
| 2026-05-07 21:17 | 65.27974 | 14.89699 | 36117 ft | 453 kts | 197° |
| 2026-05-07 21:17 | 65.21860 | 14.86437 | 36126 ft | 453 kts | 197° |
| 2026-05-07 21:18 | 65.15749 | 14.83194 | 36122 ft | 452 kts | 197° |
| 2026-05-07 21:18 | 65.09652 | 14.79974 | 36114 ft | 452 kts | 197° |
| 2026-05-07 21:19 | 65.03552 | 14.76767 | 36113 ft | 452 kts | 198° |
| 2026-05-07 21:19 | 64.97440 | 14.73569 | 36096 ft | 452 kts | 198° |
| 2026-05-07 21:20 | 64.91340 | 14.70389 | 36108 ft | 452 kts | 198° |
| 2026-05-07 21:20 | 64.85237 | 14.67227 | 36107 ft | 452 kts | 198° |
| 2026-05-07 21:21 | 64.79134 | 14.64081 | 36104 ft | 451 kts | 198° |
| 2026-05-07 21:21 | 64.73042 | 14.60950 | 36116 ft | 450 kts | 198° |
| 2026-05-07 21:22 | 64.66962 | 14.57844 | 36120 ft | 450 kts | 198° |
| 2026-05-07 21:22 | 64.60884 | 14.54747 | 36115 ft | 450 kts | 198° |
| 2026-05-07 21:23 | 64.54796 | 14.51663 | 36128 ft | 450 kts | 198° |
| 2026-05-07 21:23 | 64.48701 | 14.48588 | 36136 ft | 451 kts | 198° |
| 2026-05-07 21:24 | 64.42606 | 14.45531 | 36154 ft | 451 kts | 198° |
| 2026-05-07 21:24 | 64.36524 | 14.42491 | 36152 ft | 449 kts | 198° |
| 2026-05-07 21:25 | 64.30444 | 14.39469 | 36140 ft | 450 kts | 198° |
| 2026-05-07 21:25 | 64.24362 | 14.36458 | 36142 ft | 450 kts | 198° |
| 2026-05-07 21:26 | 64.18269 | 14.33456 | 36132 ft | 450 kts | 197° |
| 2026-05-07 21:26 | 64.12171 | 14.30463 | 36144 ft | 451 kts | 197° |
| 2026-05-07 21:27 | 64.06066 | 14.27491 | 36160 ft | 451 kts | 197° |
| 2026-05-07 21:27 | 63.99965 | 14.24526 | 36164 ft | 450 kts | 198° |
| 2026-05-07 21:28 | 63.93892 | 14.21460 | 36172 ft | 449 kts | 198° |
| 2026-05-07 21:28 | 63.87822 | 14.18363 | 36172 ft | 450 kts | 198° |
| 2026-05-07 21:29 | 63.81747 | 14.15295 | 36168 ft | 449 kts | 198° |
| 2026-05-07 21:29 | 63.75676 | 14.12244 | 36169 ft | 450 kts | 198° |
| 2026-05-07 21:30 | 63.69593 | 14.09203 | 36159 ft | 450 kts | 198° |
| 2026-05-07 21:30 | 63.63514 | 14.06181 | 36167 ft | 449 kts | 198° |
| 2026-05-07 21:31 | 63.57452 | 14.03180 | 36174 ft | 449 kts | 198° |
| 2026-05-07 21:31 | 63.51387 | 14.00188 | 36199 ft | 449 kts | 198° |
| 2026-05-07 21:32 | 63.45324 | 13.97213 | 36202 ft | 449 kts | 198° |
| 2026-05-07 21:32 | 63.39261 | 13.94249 | 36207 ft | 449 kts | 199° |
| 2026-05-07 21:33 | 63.33199 | 13.91299 | 36207 ft | 448 kts | 199° |
| 2026-05-07 21:33 | 63.27143 | 13.88365 | 36206 ft | 447 kts | 199° |
| 2026-05-07 21:34 | 63.21095 | 13.85449 | 36205 ft | 447 kts | 199° |
| 2026-05-07 21:34 | 63.15054 | 13.82547 | 36206 ft | 447 kts | 199° |
| 2026-05-07 21:35 | 63.09008 | 13.79655 | 36192 ft | 447 kts | 199° |
| 2026-05-07 21:35 | 63.02975 | 13.76783 | 36181 ft | 446 kts | 199° |
| 2026-05-07 21:36 | 62.96939 | 13.73917 | 36159 ft | 446 kts | 199° |
| 2026-05-07 21:36 | 62.90917 | 13.71073 | 36157 ft | 445 kts | 199° |
| 2026-05-07 21:37 | 62.84895 | 13.68243 | 36157 ft | 446 kts | 199° |
| 2026-05-07 21:37 | 62.78869 | 13.65417 | 36169 ft | 445 kts | 199° |
| 2026-05-07 21:38 | 62.72856 | 13.62617 | 36169 ft | 444 kts | 199° |
| 2026-05-07 21:38 | 62.66833 | 13.59816 | 36174 ft | 446 kts | 199° |
| 2026-05-07 21:39 | 62.60803 | 13.57025 | 36176 ft | 445 kts | 199° |
| 2026-05-07 21:39 | 62.54779 | 13.54254 | 36182 ft | 444 kts | 199° |
| 2026-05-07 21:40 | 62.48775 | 13.51500 | 36184 ft | 444 kts | 199° |
| 2026-05-07 21:40 | 62.42762 | 13.48754 | 36203 ft | 444 kts | 199° |
| 2026-05-07 21:41 | 62.36736 | 13.46011 | 36180 ft | 445 kts | 199° |
| 2026-05-07 21:41 | 62.30709 | 13.43280 | 36179 ft | 445 kts | 200° |
| 2026-05-07 21:42 | 62.24689 | 13.40565 | 36164 ft | 443 kts | 199° |
| 2026-05-07 21:42 | 62.18679 | 13.37863 | 36166 ft | 444 kts | 200° |
| 2026-05-07 21:43 | 62.12657 | 13.35171 | 36162 ft | 445 kts | 200° |
| 2026-05-07 21:43 | 62.06629 | 13.32481 | 36161 ft | 446 kts | 199° |
| 2026-05-07 21:44 | 62.00597 | 13.29802 | 36154 ft | 445 kts | 199° |
| 2026-05-07 21:44 | 61.94557 | 13.27133 | 36158 ft | 445 kts | 199° |
| 2026-05-07 21:45 | 61.88554 | 13.24490 | 36163 ft | 444 kts | 199° |
| 2026-05-07 21:45 | 61.82535 | 13.21850 | 36159 ft | 445 kts | 199° |
| 2026-05-07 21:46 | 61.76505 | 13.19211 | 36161 ft | 445 kts | 199° |
| 2026-05-07 21:46 | 61.70476 | 13.16591 | 36188 ft | 445 kts | 199° |
| 2026-05-07 21:47 | 61.64462 | 13.13986 | 36173 ft | 444 kts | 199° |
| 2026-05-07 21:47 | 61.58436 | 13.11385 | 36176 ft | 443 kts | 199° |
| 2026-05-07 21:48 | 61.52419 | 13.08795 | 36176 ft | 444 kts | 199° |
| 2026-05-07 21:48 | 61.46397 | 13.06218 | 36177 ft | 444 kts | 199° |
| 2026-05-07 21:49 | 61.40381 | 13.03655 | 36171 ft | 443 kts | 199° |
| 2026-05-07 21:49 | 61.34376 | 13.01102 | 36162 ft | 444 kts | 199° |
| 2026-05-07 21:50 | 61.28359 | 12.98554 | 36160 ft | 443 kts | 199° |
| 2026-05-07 21:50 | 61.25357 | 12.97286 | 35848 ft | 442 kts | 199° |
| 2026-05-07 21:50 | 61.22365 | 12.96026 | 35971 ft | 442 kts | 199° |
| 2026-05-07 21:51 | 61.16360 | 12.93500 | 36102 ft | 443 kts | 199° |
| 2026-05-07 21:51 | 61.10352 | 12.90989 | 36149 ft | 443 kts | 199° |
| 2026-05-07 21:52 | 61.04340 | 12.88483 | 36164 ft | 443 kts | 199° |
| 2026-05-07 21:52 | 60.98317 | 12.85984 | 36167 ft | 444 kts | 199° |
| 2026-05-07 21:53 | 60.92294 | 12.83494 | 36163 ft | 443 kts | 199° |
| 2026-05-07 21:53 | 60.86287 | 12.81020 | 36181 ft | 442 kts | 199° |
| 2026-05-07 21:54 | 60.80289 | 12.78561 | 36173 ft | 442 kts | 199° |
| 2026-05-07 21:54 | 60.74280 | 12.76103 | 36187 ft | 443 kts | 199° |
| 2026-05-07 21:55 | 60.68272 | 12.73657 | 36198 ft | 443 kts | 199° |
| 2026-05-07 21:55 | 60.62261 | 12.71221 | 36180 ft | 442 kts | 198° |
| 2026-05-07 21:56 | 60.56255 | 12.68795 | 36174 ft | 442 kts | 199° |
| 2026-05-07 21:56 | 60.50256 | 12.66382 | 36172 ft | 441 kts | 198° |
| 2026-05-07 21:57 | 60.44257 | 12.63976 | 36169 ft | 442 kts | 198° |
| 2026-05-07 21:57 | 60.38255 | 12.61575 | 36200 ft | 442 kts | 198° |
| 2026-05-07 21:58 | 60.32258 | 12.59195 | 36177 ft | 441 kts | 198° |
| 2026-05-07 21:58 | 60.26266 | 12.56820 | 36177 ft | 442 kts | 198° |
| 2026-05-07 21:59 | 60.20260 | 12.54453 | 36181 ft | 442 kts | 198° |
| 2026-05-07 21:59 | 60.14203 | 12.52500 | 36176 ft | 444 kts | 195° |
| 2026-05-07 22:00 | 60.08118 | 12.50800 | 36193 ft | 443 kts | 195° |
| 2026-05-07 22:00 | 60.02043 | 12.49102 | 36179 ft | 443 kts | 195° |
| 2026-05-07 22:01 | 59.95964 | 12.47421 | 36180 ft | 442 kts | 194° |
| 2026-05-07 22:01 | 59.89888 | 12.45744 | 36182 ft | 443 kts | 194° |
| 2026-05-07 22:02 | 59.83791 | 12.44079 | 36174 ft | 443 kts | 194° |
| 2026-05-07 22:02 | 59.77713 | 12.42424 | 36176 ft | 443 kts | 194° |
| 2026-05-07 22:03 | 59.71637 | 12.40772 | 36179 ft | 443 kts | 194° |
| 2026-05-07 22:03 | 59.65562 | 12.39131 | 36175 ft | 443 kts | 194° |
| 2026-05-07 22:04 | 59.59488 | 12.37495 | 36176 ft | 443 kts | 194° |
| 2026-05-07 22:04 | 59.53412 | 12.35863 | 36174 ft | 443 kts | 193° |
| 2026-05-07 22:05 | 59.47358 | 12.34246 | 36176 ft | 443 kts | 193° |
| 2026-05-07 22:05 | 59.41279 | 12.32623 | 36171 ft | 443 kts | 192° |
| 2026-05-07 22:06 | 59.35202 | 12.31009 | 36167 ft | 443 kts | 192° |
| 2026-05-07 22:06 | 59.29118 | 12.29403 | 36165 ft | 443 kts | 192° |
| 2026-05-07 22:07 | 59.23032 | 12.27797 | 36166 ft | 443 kts | 192° |
| 2026-05-07 22:07 | 59.16944 | 12.26197 | 36167 ft | 444 kts | 192° |
| 2026-05-07 22:08 | 59.10857 | 12.24601 | 36171 ft | 443 kts | 192° |
| 2026-05-07 22:08 | 59.04774 | 12.23016 | 36172 ft | 443 kts | 191° |
| 2026-05-07 22:09 | 58.98684 | 12.21434 | 36168 ft | 442 kts | 191° |
| 2026-05-07 22:09 | 58.92612 | 12.19867 | 36166 ft | 443 kts | 191° |
| 2026-05-07 22:10 | 58.86524 | 12.18291 | 36166 ft | 443 kts | 191° |
| 2026-05-07 22:10 | 58.80436 | 12.16727 | 36166 ft | 444 kts | 191° |
| 2026-05-07 22:11 | 58.74344 | 12.15166 | 36167 ft | 444 kts | 191° |
| 2026-05-07 22:11 | 58.68256 | 12.13614 | 36168 ft | 443 kts | 191° |
| 2026-05-07 22:12 | 58.62175 | 12.12065 | 36169 ft | 443 kts | 191° |
| 2026-05-07 22:12 | 58.56084 | 12.10519 | 36171 ft | 444 kts | 190° |
| 2026-05-07 22:13 | 58.49987 | 12.08980 | 36174 ft | 444 kts | 190° |
| 2026-05-07 22:13 | 58.43884 | 12.07446 | 36176 ft | 445 kts | 190° |
| 2026-05-07 22:14 | 58.37779 | 12.05915 | 36179 ft | 444 kts | 190° |
| 2026-05-07 22:14 | 58.31684 | 12.04389 | 36178 ft | 443 kts | 190° |
| 2026-05-07 22:15 | 58.25594 | 12.02873 | 36177 ft | 444 kts | 190° |
| 2026-05-07 22:15 | 58.19504 | 12.01361 | 36175 ft | 443 kts | 190° |
| 2026-05-07 22:16 | 58.13408 | 11.99851 | 36173 ft | 444 kts | 189° |
| 2026-05-07 22:16 | 58.07307 | 11.98346 | 36172 ft | 444 kts | 189° |
| 2026-05-07 22:17 | 58.01205 | 11.96850 | 36173 ft | 444 kts | 189° |
| 2026-05-07 22:17 | 57.95099 | 11.95356 | 36174 ft | 444 kts | 189° |
| 2026-05-07 22:18 | 57.85952 | 11.93123 | 36177 ft | 445 kts | 189° |
| 2026-05-07 22:19 | 57.79838 | 11.91639 | 36179 ft | 445 kts | 189° |
| 2026-05-07 22:19 | 57.73714 | 11.90159 | 36179 ft | 446 kts | 189° |
| 2026-05-07 22:20 | 57.67580 | 11.88682 | 36180 ft | 447 kts | 189° |
| 2026-05-07 22:20 | 57.61440 | 11.87206 | 36177 ft | 447 kts | 188° |
| 2026-05-07 22:21 | 57.55286 | 11.85730 | 36177 ft | 448 kts | 188° |
| 2026-05-07 22:21 | 57.49131 | 11.84261 | 36175 ft | 448 kts | 188° |
| 2026-05-07 22:22 | 57.42974 | 11.82797 | 36174 ft | 448 kts | 188° |
| 2026-05-07 22:22 | 57.36809 | 11.81333 | 36177 ft | 449 kts | 188° |
| 2026-05-07 22:23 | 57.30642 | 11.79879 | 36183 ft | 449 kts | 188° |
| 2026-05-07 22:23 | 57.24476 | 11.78429 | 36186 ft | 448 kts | 188° |
| 2026-05-07 22:24 | 57.18319 | 11.76985 | 36187 ft | 448 kts | 188° |
| 2026-05-07 22:24 | 57.12161 | 11.75542 | 36186 ft | 448 kts | 187° |
| 2026-05-07 22:25 | 57.06000 | 11.74107 | 36187 ft | 449 kts | 187° |
| 2026-05-07 22:25 | 56.99828 | 11.72675 | 36180 ft | 448 kts | 187° |
| 2026-05-07 22:26 | 56.93665 | 11.71249 | 36184 ft | 448 kts | 187° |
| 2026-05-07 22:26 | 56.87508 | 11.69829 | 36185 ft | 447 kts | 187° |
| 2026-05-07 22:27 | 56.81366 | 11.68416 | 36178 ft | 447 kts | 187° |
| 2026-05-07 22:27 | 56.75217 | 11.67005 | 36187 ft | 448 kts | 187° |
| 2026-05-07 22:28 | 56.69059 | 11.65598 | 36180 ft | 448 kts | 187° |
| 2026-05-07 22:28 | 56.62890 | 11.64193 | 36177 ft | 449 kts | 187° |
| 2026-05-07 22:29 | 56.56722 | 11.62793 | 36176 ft | 449 kts | 187° |
| 2026-05-07 22:29 | 56.50556 | 11.61400 | 36178 ft | 448 kts | 187° |
| 2026-05-07 22:30 | 56.44393 | 11.60010 | 36170 ft | 448 kts | 187° |
| 2026-05-07 22:30 | 56.38231 | 11.58624 | 36171 ft | 448 kts | 187° |
| 2026-05-07 22:31 | 56.32066 | 11.57243 | 36174 ft | 449 kts | 187° |
| 2026-05-07 22:31 | 56.25898 | 11.55865 | 36171 ft | 449 kts | 187° |
| 2026-05-07 22:32 | 56.19732 | 11.54494 | 36172 ft | 448 kts | 187° |
| 2026-05-07 22:32 | 56.13567 | 11.53126 | 36163 ft | 448 kts | 187° |
| 2026-05-07 22:33 | 56.07402 | 11.51764 | 36165 ft | 448 kts | 187° |
| 2026-05-07 22:33 | 56.01237 | 11.50405 | 36144 ft | 448 kts | 187° |
| 2026-05-07 22:34 | 55.95059 | 11.49048 | 36156 ft | 449 kts | 187° |
| 2026-05-07 22:34 | 55.88889 | 11.47695 | 36166 ft | 449 kts | 186° |
| 2026-05-07 22:35 | 55.82715 | 11.46348 | 36158 ft | 449 kts | 186° |
| 2026-05-07 22:35 | 55.76541 | 11.45006 | 36151 ft | 449 kts | 186° |
| 2026-05-07 22:36 | 55.70367 | 11.43666 | 36158 ft | 449 kts | 186° |
| 2026-05-07 22:36 | 55.64189 | 11.42330 | 36156 ft | 449 kts | 186° |
| 2026-05-07 22:37 | 55.58008 | 11.40998 | 36161 ft | 450 kts | 186° |
| 2026-05-07 22:37 | 55.51822 | 11.39670 | 36155 ft | 450 kts | 186° |
| 2026-05-07 22:38 | 55.45629 | 11.38344 | 36165 ft | 450 kts | 186° |
| 2026-05-07 22:38 | 55.39439 | 11.37021 | 36163 ft | 450 kts | 186° |
| 2026-05-07 22:39 | 55.33252 | 11.35705 | 36166 ft | 450 kts | 186° |
| 2026-05-07 22:39 | 55.27091 | 11.34399 | 36160 ft | 450 kts | 185° |
| 2026-05-07 22:40 | 55.20898 | 11.33089 | 36167 ft | 451 kts | 185° |
| 2026-05-07 22:40 | 55.14698 | 11.31782 | 36164 ft | 451 kts | 185° |
| 2026-05-07 22:41 | 55.08492 | 11.30479 | 36175 ft | 451 kts | 185° |
| 2026-05-07 22:41 | 55.02288 | 11.29181 | 36170 ft | 451 kts | 185° |
| 2026-05-07 22:42 | 54.96077 | 11.27885 | 36168 ft | 450 kts | 185° |
| 2026-05-07 22:42 | 54.89880 | 11.26595 | 36182 ft | 451 kts | 185° |
| 2026-05-07 22:43 | 54.83658 | 11.25306 | 36162 ft | 451 kts | 185° |
| 2026-05-07 22:43 | 54.77451 | 11.24025 | 36167 ft | 451 kts | 185° |
| 2026-05-07 22:44 | 54.71245 | 11.22749 | 36175 ft | 451 kts | 185° |
| 2026-05-07 22:44 | 54.65047 | 11.21442 | 36177 ft | 451 kts | 187° |
| 2026-05-07 22:45 | 54.58926 | 11.19300 | 36162 ft | 451 kts | 194° |
| 2026-05-07 22:45 | 54.52981 | 11.15971 | 36183 ft | 452 kts | 200° |
| 2026-05-07 22:46 | 54.47174 | 11.11939 | 36175 ft | 452 kts | 201° |
| 2026-05-07 22:46 | 54.44269 | 11.09938 | 36404 ft | 451 kts | 201° |
| 2026-05-07 22:46 | 54.41374 | 11.07948 | 36007 ft | 450 kts | 201° |
| 2026-05-07 22:46 | 54.38477 | 11.05961 | 36335 ft | 450 kts | 201° |
| 2026-05-07 22:47 | 54.35583 | 11.03977 | 36263 ft | 450 kts | 201° |
| 2026-05-07 22:47 | 54.29718 | 11.00407 | 36204 ft | 449 kts | 195° |
| 2026-05-07 22:48 | 54.23675 | 10.97895 | 36190 ft | 449 kts | 192° |
| 2026-05-07 22:48 | 54.17606 | 10.95580 | 36184 ft | 449 kts | 192° |
| 2026-05-07 22:49 | 54.11538 | 10.93268 | 36178 ft | 449 kts | 192° |
| 2026-05-07 22:49 | 54.05469 | 10.90966 | 36182 ft | 449 kts | 192° |
| 2026-05-07 22:50 | 53.99392 | 10.88668 | 36180 ft | 448 kts | 192° |
| 2026-05-07 22:50 | 53.93331 | 10.86383 | 36178 ft | 448 kts | 192° |
| 2026-05-07 22:51 | 53.87271 | 10.84106 | 36177 ft | 448 kts | 192° |
| 2026-05-07 22:51 | 53.81213 | 10.81835 | 36176 ft | 448 kts | 192° |
| 2026-05-07 22:52 | 53.75145 | 10.79568 | 36172 ft | 448 kts | 192° |
| 2026-05-07 22:52 | 53.69070 | 10.77305 | 36183 ft | 449 kts | 192° |
| 2026-05-07 22:53 | 53.62991 | 10.75048 | 36175 ft | 449 kts | 192° |
| 2026-05-07 22:53 | 53.56911 | 10.72798 | 36168 ft | 449 kts | 193° |
| 2026-05-07 22:54 | 53.50834 | 10.70554 | 36173 ft | 449 kts | 193° |
| 2026-05-07 22:54 | 53.44754 | 10.68317 | 36167 ft | 449 kts | 193° |
| 2026-05-07 22:55 | 53.38672 | 10.66083 | 36172 ft | 449 kts | 193° |
| 2026-05-07 22:55 | 53.32586 | 10.63856 | 36168 ft | 449 kts | 193° |
| 2026-05-07 22:56 | 53.26511 | 10.61638 | 36164 ft | 448 kts | 193° |
| 2026-05-07 22:56 | 53.20446 | 10.59431 | 36163 ft | 448 kts | 193° |
| 2026-05-07 22:57 | 53.14388 | 10.57233 | 36158 ft | 447 kts | 193° |
| 2026-05-07 22:57 | 53.08334 | 10.55044 | 36157 ft | 447 kts | 193° |
| 2026-05-07 22:58 | 53.02285 | 10.52863 | 36148 ft | 446 kts | 193° |
| 2026-05-07 22:58 | 52.96273 | 10.50700 | 36146 ft | 446 kts | 193° |
| 2026-05-07 22:59 | 52.90234 | 10.48535 | 36149 ft | 446 kts | 193° |
| 2026-05-07 22:59 | 52.84181 | 10.46375 | 36149 ft | 446 kts | 193° |
| 2026-05-07 23:00 | 52.78138 | 10.44223 | 36141 ft | 446 kts | 193° |
| 2026-05-07 23:00 | 52.72086 | 10.42120 | 36147 ft | 446 kts | 192° |
| 2026-05-07 23:01 | 52.65949 | 10.40838 | 36144 ft | 447 kts | 186° |
| 2026-05-07 23:01 | 52.59782 | 10.39936 | 36140 ft | 447 kts | 186° |
| 2026-05-07 23:02 | 52.53614 | 10.39027 | 36140 ft | 447 kts | 187° |
| 2026-05-07 23:02 | 52.47443 | 10.38125 | 36141 ft | 447 kts | 186° |
| 2026-05-07 23:03 | 52.41273 | 10.37228 | 36137 ft | 447 kts | 187° |
| 2026-05-07 23:03 | 52.35105 | 10.36333 | 36138 ft | 446 kts | 187° |
| 2026-05-07 23:04 | 52.28943 | 10.35441 | 36135 ft | 446 kts | 187° |
| 2026-05-07 23:04 | 52.22765 | 10.34551 | 36124 ft | 447 kts | 186° |
| 2026-05-07 23:05 | 52.16593 | 10.33663 | 36131 ft | 447 kts | 186° |
| 2026-05-07 23:05 | 52.10423 | 10.32778 | 36131 ft | 447 kts | 186° |
| 2026-05-07 23:06 | 52.04252 | 10.31896 | 36131 ft | 447 kts | 186° |
| 2026-05-07 23:06 | 51.98070 | 10.31014 | 36135 ft | 447 kts | 186° |
| 2026-05-07 23:07 | 51.91944 | 10.30143 | 36132 ft | 447 kts | 186° |
| 2026-05-07 23:07 | 51.85743 | 10.29266 | 36127 ft | 447 kts | 186° |
| 2026-05-07 23:08 | 51.79570 | 10.28393 | 36117 ft | 447 kts | 186° |
| 2026-05-07 23:08 | 51.73396 | 10.27520 | 36123 ft | 447 kts | 186° |
| 2026-05-07 23:09 | 51.67223 | 10.26653 | 36114 ft | 447 kts | 186° |
| 2026-05-07 23:09 | 51.61026 | 10.25784 | 36114 ft | 447 kts | 186° |
| 2026-05-07 23:10 | 51.54853 | 10.24922 | 36115 ft | 447 kts | 186° |
| 2026-05-07 23:10 | 51.48680 | 10.24063 | 36121 ft | 447 kts | 186° |
| 2026-05-07 23:11 | 51.42508 | 10.23209 | 36119 ft | 447 kts | 186° |
| 2026-05-07 23:11 | 51.36333 | 10.22354 | 36104 ft | 447 kts | 187° |
| 2026-05-07 23:12 | 51.30133 | 10.21869 | 36116 ft | 448 kts | 182° |
| 2026-05-07 23:12 | 51.23924 | 10.21744 | 36100 ft | 448 kts | 182° |
| 2026-05-07 23:13 | 51.17720 | 10.21623 | 36097 ft | 447 kts | 182° |
| 2026-05-07 23:13 | 51.11520 | 10.21498 | 36094 ft | 447 kts | 182° |
| 2026-05-07 23:14 | 51.05315 | 10.21384 | 36100 ft | 447 kts | 182° |
| 2026-05-07 23:14 | 50.99141 | 10.21275 | 36099 ft | 448 kts | 182° |
| 2026-05-07 23:15 | 50.92932 | 10.21169 | 36099 ft | 448 kts | 182° |
| 2026-05-07 23:15 | 50.86710 | 10.21059 | 36097 ft | 447 kts | 183° |
| 2026-05-07 23:16 | 50.80579 | 10.20225 | 36076 ft | 441 kts | 202° |
| 2026-05-07 23:16 | 50.77961 | 10.17851 | 36089 ft | 435 kts | 224° |
| 2026-05-07 23:16 | 50.76100 | 10.14176 | 36088 ft | 430 kts | 245° |
| 2026-05-07 23:17 | 50.74089 | 10.05357 | 36107 ft | 429 kts | 251° |
| 2026-05-07 23:17 | 50.71834 | 9.96652 | 36103 ft | 430 kts | 246° |
| 2026-05-07 23:18 | 50.69250 | 9.88169 | 36104 ft | 431 kts | 245° |
| 2026-05-07 23:18 | 50.66565 | 9.79775 | 36098 ft | 430 kts | 244° |
| 2026-05-07 23:19 | 50.63858 | 9.71409 | 36106 ft | 430 kts | 244° |
| 2026-05-07 23:19 | 50.62241 | 9.67479 | 36083 ft | 432 kts | 228° |
| 2026-05-07 23:19 | 50.59843 | 9.64647 | 36097 ft | 438 kts | 208° |
| 2026-05-07 23:20 | 50.54037 | 9.61727 | 36103 ft | 439 kts | 199° |
| 2026-05-07 23:20 | 50.48277 | 9.58670 | 36099 ft | 438 kts | 203° |
| 2026-05-07 23:21 | 50.42589 | 9.55322 | 36100 ft | 438 kts | 203° |
| 2026-05-07 23:21 | 50.36895 | 9.51986 | 36100 ft | 438 kts | 203° |
| 2026-05-07 23:22 | 50.31200 | 9.48662 | 36095 ft | 438 kts | 203° |
| 2026-05-07 23:22 | 50.25508 | 9.45344 | 36100 ft | 438 kts | 203° |
| 2026-05-07 23:23 | 50.19819 | 9.42035 | 36098 ft | 438 kts | 203° |
| 2026-05-07 23:23 | 50.14130 | 9.38744 | 36096 ft | 437 kts | 204° |
| 2026-05-07 23:24 | 50.08478 | 9.35501 | 36098 ft | 437 kts | 203° |
| 2026-05-07 23:24 | 50.02774 | 9.32244 | 36094 ft | 437 kts | 202° |
| 2026-05-07 23:25 | 49.97066 | 9.28998 | 36092 ft | 437 kts | 202° |
| 2026-05-07 23:25 | 49.91368 | 9.25766 | 36099 ft | 437 kts | 202° |
| 2026-05-07 23:26 | 49.85670 | 9.22542 | 36098 ft | 437 kts | 202° |
| 2026-05-07 23:26 | 49.79984 | 9.19328 | 36098 ft | 436 kts | 202° |
| 2026-05-07 23:27 | 49.71463 | 9.14536 | 36095 ft | 436 kts | 202° |
| 2026-05-07 23:27 | 49.65779 | 9.11365 | 36097 ft | 436 kts | 203° |
| 2026-05-07 23:28 | 49.60095 | 9.08201 | 36093 ft | 436 kts | 203° |
| 2026-05-07 23:28 | 49.54409 | 9.05040 | 36082 ft | 436 kts | 203° |
| 2026-05-07 23:29 | 49.48724 | 9.01885 | 36086 ft | 436 kts | 203° |
| 2026-05-07 23:29 | 49.43029 | 8.98727 | 36090 ft | 436 kts | 203° |
| 2026-05-07 23:30 | 49.37343 | 8.95584 | 35815 ft | 436 kts | 203° |
| 2026-05-07 23:30 | 49.34498 | 8.94019 | 35917 ft | 437 kts | 203° |
| 2026-05-07 23:30 | 49.31642 | 8.92453 | 35985 ft | 438 kts | 203° |
| 2026-05-07 23:31 | 49.25931 | 8.89329 | 36044 ft | 437 kts | 203° |
| 2026-05-07 23:31 | 49.20225 | 8.86216 | 36071 ft | 437 kts | 203° |
| 2026-05-07 23:32 | 49.14522 | 8.83114 | 36084 ft | 437 kts | 203° |
| 2026-05-07 23:32 | 49.08815 | 8.80025 | 36085 ft | 437 kts | 203° |
| 2026-05-07 23:33 | 49.03100 | 8.76937 | 36083 ft | 437 kts | 203° |
| 2026-05-07 23:33 | 48.97383 | 8.73840 | 36087 ft | 437 kts | 203° |
| 2026-05-07 23:34 | 48.91680 | 8.70756 | 36084 ft | 436 kts | 203° |
| 2026-05-07 23:34 | 48.86010 | 8.67710 | 36084 ft | 435 kts | 203° |
| 2026-05-07 23:35 | 48.80316 | 8.64673 | 36082 ft | 435 kts | 203° |
| 2026-05-07 23:35 | 48.74622 | 8.61646 | 36082 ft | 435 kts | 203° |
| 2026-05-07 23:36 | 48.68921 | 8.58625 | 36082 ft | 435 kts | 203° |
| 2026-05-07 23:36 | 48.63226 | 8.55608 | 36079 ft | 435 kts | 203° |
| 2026-05-07 23:37 | 48.57531 | 8.52610 | 36081 ft | 435 kts | 203° |
| 2026-05-07 23:37 | 48.51843 | 8.49619 | 36082 ft | 434 kts | 203° |
| 2026-05-07 23:38 | 48.46159 | 8.46641 | 36078 ft | 434 kts | 203° |
| 2026-05-07 23:38 | 48.40471 | 8.43677 | 36079 ft | 434 kts | 203° |
| 2026-05-07 23:39 | 48.34778 | 8.40728 | 36081 ft | 434 kts | 203° |
| 2026-05-07 23:39 | 48.29082 | 8.37796 | 36083 ft | 434 kts | 203° |
| 2026-05-07 23:40 | 48.23390 | 8.34871 | 36083 ft | 434 kts | 202° |
| 2026-05-07 23:40 | 48.17693 | 8.31950 | 36081 ft | 433 kts | 202° |
| 2026-05-07 23:41 | 48.12012 | 8.29042 | 36087 ft | 433 kts | 202° |
| 2026-05-07 23:41 | 48.06330 | 8.26142 | 36084 ft | 433 kts | 202° |
| 2026-05-07 23:42 | 48.00644 | 8.23254 | 36089 ft | 433 kts | 202° |
| 2026-05-07 23:42 | 47.94952 | 8.20374 | 36087 ft | 433 kts | 202° |
| 2026-05-07 23:43 | 47.89262 | 8.17506 | 36091 ft | 433 kts | 202° |
| 2026-05-07 23:43 | 47.83570 | 8.14630 | 36087 ft | 432 kts | 202° |
| 2026-05-07 23:44 | 47.77895 | 8.11762 | 36084 ft | 432 kts | 202° |
| 2026-05-07 23:44 | 47.72222 | 8.08891 | 36089 ft | 432 kts | 202° |
| 2026-05-07 23:45 | 47.66562 | 8.06014 | 36086 ft | 431 kts | 202° |
| 2026-05-07 23:45 | 47.60904 | 8.03134 | 36080 ft | 431 kts | 202° |
| 2026-05-07 23:46 | 47.55253 | 8.00253 | 36076 ft | 431 kts | 202° |
| 2026-05-07 23:46 | 47.49626 | 7.97384 | 36083 ft | 431 kts | 202° |
| 2026-05-07 23:47 | 47.43982 | 7.94506 | 36081 ft | 430 kts | 202° |
| 2026-05-07 23:47 | 47.38353 | 7.91635 | 36081 ft | 429 kts | 202° |
| 2026-05-07 23:48 | 47.32734 | 7.88763 | 36081 ft | 429 kts | 202° |
| 2026-05-07 23:48 | 47.27116 | 7.85881 | 36077 ft | 429 kts | 202° |
| 2026-05-07 23:49 | 47.21500 | 7.82985 | 36071 ft | 429 kts | 202° |
| 2026-05-07 23:49 | 47.15883 | 7.80083 | 36069 ft | 429 kts | 202° |
| 2026-05-07 23:50 | 47.10268 | 7.77184 | 36076 ft | 429 kts | 202° |
| 2026-05-07 23:50 | 47.04652 | 7.74284 | 36076 ft | 429 kts | 202° |
| 2026-05-07 23:51 | 46.98979 | 7.71637 | 36029 ft | 430 kts | 193° |
| 2026-05-07 23:51 | 46.96009 | 7.71349 | 35781 ft | 431 kts | 181° |
| 2026-05-07 23:51 | 46.93049 | 7.72047 | 35300 ft | 436 kts | 167° |
| 2026-05-07 23:52 | 46.90344 | 7.74051 | 34910 ft | 444 kts | 144° |
| 2026-05-07 23:52 | 46.88028 | 7.77123 | 34991 ft | 449 kts | 142° |
| 2026-05-07 23:52 | 46.83562 | 7.83497 | 35052 ft | 458 kts | 129° |
| 2026-05-07 23:53 | 46.80695 | 7.91739 | 35071 ft | 466 kts | 110° |
| 2026-05-07 23:53 | 46.79611 | 8.01038 | 35074 ft | 470 kts | 92° |
| 2026-05-07 23:54 | 46.80477 | 8.10435 | 35072 ft | 471 kts | 73° |
| 2026-05-07 23:54 | 46.83240 | 8.19017 | 35065 ft | 469 kts | 54° |
| 2026-05-07 23:55 | 46.87614 | 8.25940 | 35060 ft | 465 kts | 36° |
| 2026-05-07 23:55 | 46.93140 | 8.30590 | 35056 ft | 458 kts | 17° |
| 2026-05-07 23:56 | 46.99260 | 8.32675 | 35059 ft | 451 kts | 3° |
| 2026-05-07 23:56 | 47.05476 | 8.33757 | 35055 ft | 451 kts | 2° |
| 2026-05-07 23:57 | 47.11733 | 8.34848 | 35062 ft | 451 kts | 2° |
| 2026-05-07 23:57 | 47.17941 | 8.35969 | 35054 ft | 450 kts | 3° |
| 2026-05-07 23:58 | 47.24141 | 8.37104 | 35067 ft | 450 kts | 3° |
| 2026-05-07 23:58 | 47.30343 | 8.38249 | 35072 ft | 450 kts | 3° |
| 2026-05-07 23:59 | 47.36536 | 8.39396 | 35074 ft | 450 kts | 3° |
| 2026-05-07 23:59 | 47.42681 | 8.40537 | 35077 ft | 449 kts | 2° |
| 2026-05-08 00:00 | 47.48862 | 8.41689 | 35071 ft | 449 kts | 2° |
| 2026-05-08 00:00 | 47.55032 | 8.42842 | 35075 ft | 448 kts | 2° |
| 2026-05-08 00:01 | 47.61193 | 8.43994 | 35073 ft | 447 kts | 2° |
| 2026-05-08 00:01 | 47.67350 | 8.45150 | 35072 ft | 447 kts | 2° |
| 2026-05-08 00:02 | 47.73504 | 8.46306 | 35069 ft | 447 kts | 2° |
| 2026-05-08 00:02 | 47.79662 | 8.47466 | 35070 ft | 448 kts | 2° |
| 2026-05-08 00:03 | 47.85827 | 8.48630 | 35066 ft | 448 kts | 2° |
| 2026-05-08 00:03 | 47.91991 | 8.49797 | 35076 ft | 448 kts | 2° |
| 2026-05-08 00:04 | 47.98152 | 8.50967 | 35072 ft | 447 kts | 2° |
| 2026-05-08 00:04 | 48.04308 | 8.52137 | 35081 ft | 447 kts | 2° |
| 2026-05-08 00:05 | 48.10474 | 8.53312 | 35086 ft | 447 kts | 2° |
| 2026-05-08 00:05 | 48.16626 | 8.54488 | 35074 ft | 447 kts | 2° |
| 2026-05-08 00:06 | 48.22773 | 8.55666 | 35096 ft | 447 kts | 2° |
| 2026-05-08 00:06 | 48.28915 | 8.56846 | 35086 ft | 446 kts | 2° |
| 2026-05-08 00:07 | 48.35052 | 8.58027 | 35078 ft | 445 kts | 2° |
| 2026-05-08 00:07 | 48.41153 | 8.59205 | 34734 ft | 443 kts | 2° |
| 2026-05-08 00:08 | 48.44220 | 8.59796 | 33724 ft | 452 kts | 3° |
| 2026-05-08 00:08 | 48.47333 | 8.60393 | 32941 ft | 453 kts | 3° |
| 2026-05-08 00:08 | 48.50429 | 8.60994 | 32416 ft | 448 kts | 3° |
| 2026-05-08 00:08 | 48.53489 | 8.61591 | 31889 ft | 443 kts | 3° |
| 2026-05-08 00:09 | 48.56518 | 8.62181 | 31343 ft | 439 kts | 4° |
| 2026-05-08 00:09 | 48.59519 | 8.62766 | 30808 ft | 435 kts | 4° |
| 2026-05-08 00:09 | 48.62490 | 8.63345 | 30243 ft | 430 kts | 4° |
| 2026-05-08 00:09 | 48.65436 | 8.63921 | 29679 ft | 426 kts | 4° |
| 2026-05-08 00:10 | 48.68352 | 8.64490 | 29107 ft | 422 kts | 4° |
| 2026-05-08 00:10 | 48.71243 | 8.65055 | 28518 ft | 419 kts | 5° |
| 2026-05-08 00:10 | 48.74112 | 8.65617 | 27924 ft | 416 kts | 5° |
| 2026-05-08 00:10 | 48.76956 | 8.66174 | 27330 ft | 412 kts | 5° |
| 2026-05-08 00:11 | 48.79779 | 8.66727 | 26725 ft | 409 kts | 5° |
| 2026-05-08 00:11 | 48.82581 | 8.67276 | 26130 ft | 406 kts | 5° |
| 2026-05-08 00:11 | 48.85360 | 8.67822 | 25549 ft | 403 kts | 5° |
| 2026-05-08 00:11 | 48.88119 | 8.68364 | 24971 ft | 400 kts | 6° |
| 2026-05-08 00:12 | 48.90856 | 8.68904 | 24402 ft | 397 kts | 6° |
| 2026-05-08 00:12 | 48.93572 | 8.69440 | 23834 ft | 394 kts | 6° |
| 2026-05-08 00:12 | 48.96268 | 8.69973 | 23267 ft | 391 kts | 6° |
| 2026-05-08 00:12 | 48.98942 | 8.70503 | 22729 ft | 387 kts | 6° |
| 2026-05-08 00:13 | 49.01591 | 8.71028 | 22203 ft | 384 kts | 6° |
| 2026-05-08 00:13 | 49.04222 | 8.71551 | 21618 ft | 382 kts | 6° |
| 2026-05-08 00:13 | 49.06833 | 8.72069 | 21138 ft | 377 kts | 6° |
| 2026-05-08 00:13 | 49.09406 | 8.72580 | 20717 ft | 371 kts | 6° |
| 2026-05-08 00:14 | 49.11950 | 8.73086 | 20293 ft | 366 kts | 6° |
| 2026-05-08 00:14 | 49.14453 | 8.73584 | 19875 ft | 362 kts | 6° |
| 2026-05-08 00:14 | 49.16925 | 8.74075 | 19459 ft | 357 kts | 6° |
| 2026-05-08 00:14 | 49.19369 | 8.74561 | 19049 ft | 354 kts | 6° |
| 2026-05-08 00:15 | 49.21788 | 8.75043 | 18644 ft | 350 kts | 6° |
| 2026-05-08 00:15 | 49.24182 | 8.75521 | 18246 ft | 346 kts | 6° |
| 2026-05-08 00:15 | 49.26555 | 8.75995 | 17839 ft | 344 kts | 6° |
| 2026-05-08 00:15 | 49.28910 | 8.76465 | 17428 ft | 341 kts | 6° |
| 2026-05-08 00:16 | 49.31247 | 8.76933 | 17025 ft | 339 kts | 6° |
| 2026-05-08 00:16 | 49.33567 | 8.77398 | 16631 ft | 336 kts | 6° |
| 2026-05-08 00:16 | 49.35871 | 8.77860 | 16239 ft | 334 kts | 6° |
| 2026-05-08 00:16 | 49.38159 | 8.78320 | 15848 ft | 331 kts | 6° |
| 2026-05-08 00:17 | 49.40431 | 8.78776 | 15453 ft | 329 kts | 6° |
| 2026-05-08 00:17 | 49.42690 | 8.79230 | 15058 ft | 328 kts | 6° |
| 2026-05-08 00:17 | 49.44937 | 8.79681 | 14657 ft | 326 kts | 6° |
| 2026-05-08 00:17 | 49.47172 | 8.80131 | 14266 ft | 324 kts | 6° |
| 2026-05-08 00:18 | 49.49397 | 8.80580 | 13862 ft | 323 kts | 6° |
| 2026-05-08 00:18 | 49.51609 | 8.81028 | 13470 ft | 321 kts | 6° |
| 2026-05-08 00:18 | 49.53805 | 8.81473 | 13095 ft | 318 kts | 6° |
| 2026-05-08 00:18 | 49.55986 | 8.81916 | 12712 ft | 316 kts | 6° |
| 2026-05-08 00:19 | 49.58152 | 8.82355 | 12336 ft | 314 kts | 6° |
| 2026-05-08 00:19 | 49.60301 | 8.82790 | 11972 ft | 311 kts | 6° |
| 2026-05-08 00:19 | 49.62432 | 8.83223 | 11606 ft | 309 kts | 6° |
| 2026-05-08 00:19 | 49.64546 | 8.83652 | 11246 ft | 306 kts | 6° |
| 2026-05-08 00:20 | 49.66639 | 8.84077 | 10894 ft | 303 kts | 6° |
| 2026-05-08 00:20 | 49.68713 | 8.84500 | 10546 ft | 300 kts | 6° |
| 2026-05-08 00:20 | 49.70769 | 8.84917 | 10204 ft | 297 kts | 6° |
| 2026-05-08 00:20 | 49.72788 | 8.85328 | 10029 ft | 287 kts | 6° |
| 2026-05-08 00:21 | 49.74745 | 8.85727 | 9740 ft | 283 kts | 6° |
| 2026-05-08 00:21 | 49.76684 | 8.86122 | 9398 ft | 281 kts | 6° |
| 2026-05-08 00:21 | 49.78606 | 8.86513 | 9070 ft | 278 kts | 6° |
| 2026-05-08 00:21 | 49.80513 | 8.86902 | 8734 ft | 276 kts | 6° |
| 2026-05-08 00:22 | 49.82406 | 8.87289 | 8402 ft | 274 kts | 7° |
| 2026-05-08 00:22 | 49.84286 | 8.87674 | 8069 ft | 272 kts | 7° |
| 2026-05-08 00:22 | 49.86153 | 8.88058 | 7735 ft | 271 kts | 7° |
| 2026-05-08 00:22 | 49.88008 | 8.88439 | 7408 ft | 269 kts | 7° |
| 2026-05-08 00:23 | 49.89851 | 8.88818 | 7079 ft | 267 kts | 7° |
| 2026-05-08 00:23 | 49.91704 | 8.88945 | 6709 ft | 268 kts | 357° |
| 2026-05-08 00:23 | 49.93545 | 8.88535 | 6274 ft | 269 kts | 347° |
| 2026-05-08 00:23 | 49.95348 | 8.87807 | 5896 ft | 268 kts | 345° |
| 2026-05-08 00:24 | 49.97131 | 8.87022 | 5530 ft | 266 kts | 344° |
| 2026-05-08 00:24 | 49.98905 | 8.86225 | 5272 ft | 266 kts | 344° |
| 2026-05-08 00:24 | 50.00644 | 8.85247 | 5017 ft | 266 kts | 336° |
| 2026-05-08 00:24 | 50.02310 | 8.84036 | 4759 ft | 262 kts | 334° |
| 2026-05-08 00:25 | 50.03917 | 8.82816 | 4505 ft | 257 kts | 334° |
| 2026-05-08 00:25 | 50.05496 | 8.81607 | 4214 ft | 254 kts | 334° |
| 2026-05-08 00:25 | 50.07050 | 8.80337 | 3979 ft | 248 kts | 323° |
| 2026-05-08 00:25 | 50.08093 | 8.78358 | 3961 ft | 232 kts | 291° |
| 2026-05-08 00:26 | 50.08283 | 8.75974 | 3946 ft | 212 kts | 258° |
| 2026-05-08 00:26 | 50.07800 | 8.73930 | 4003 ft | 188 kts | 242° |
| 2026-05-08 00:26 | 50.07146 | 8.72277 | 3721 ft | 176 kts | 240° |
| 2026-05-08 00:26 | 50.06534 | 8.70682 | 3294 ft | 167 kts | 253° |
| 2026-05-08 00:27 | 50.06079 | 8.69026 | 2728 ft | 169 kts | 264° |
| 2026-05-08 00:27 | 50.05848 | 8.67258 | 2213 ft | 168 kts | 274° |
| 2026-05-08 00:27 | 50.05662 | 8.65489 | 1819 ft | 165 kts | 257° |
| 2026-05-08 00:27 | 50.05246 | 8.63838 | 1450 ft | 162 kts | 248° |
| 2026-05-08 00:28 | 50.04857 | 8.62222 | 1137 ft | 155 kts | 250° |
| 2026-05-08 00:28 | 50.04501 | 8.60695 | 850 ft | 149 kts | 251° |
| 2026-05-08 00:28 | 50.04142 | 8.59214 | 558 ft | 143 kts | 251° |
| 2026-05-08 00:28 | 50.03802 | 8.57808 | 358 ft | 132 kts | 253° |
| 2026-05-08 00:29 | 50.03532 | 8.56664 | 339 ft | 89 kts | 250° |
| 2026-05-08 00:29 | 50.03377 | 8.56018 | 335 ft | 40 kts | 249° |
| 2026-05-08 00:29 | 50.03323 | 8.55788 | 334 ft | 17 kts | 252° |
| 2026-05-08 00:29 | 50.03309 | 8.55586 | 332 ft | 19 kts | 279° |
| 2026-05-08 00:30 | 50.03327 | 8.55373 | 332 ft | 20 kts | 279° |
| 2026-05-08 00:30 | 50.03352 | 8.55157 | 332 ft | 20 kts | 281° |
| 2026-05-08 00:30 | 50.03401 | 8.54950 | 333 ft | 20 kts | 295° |
| 2026-05-08 00:30 | 50.03500 | 8.54816 | 335 ft | 19 kts | 341° |
| 2026-05-08 00:31 | 50.03625 | 8.54748 | 336 ft | 19 kts | 340° |
| 2026-05-08 00:31 | 50.03748 | 8.54735 | 338 ft | 16 kts | 36° |
| 2026-05-08 00:31 | 50.03791 | 8.54870 | 341 ft | 13 kts | 71° |
| 2026-05-08 00:31 | 50.03831 | 8.55010 | 342 ft | 13 kts | 43° |
| 2026-05-08 00:32 | 50.03920 | 8.54999 | 343 ft | 13 kts | 341° |
| 2026-05-08 00:32 | 50.04006 | 8.54997 | 345 ft | 12 kts | 44° |
| 2026-05-08 00:32 | 50.04042 | 8.55108 | 349 ft | 10 kts | 69° |
| 2026-05-08 00:32 | 50.04066 | 8.55211 | 351 ft | 10 kts | 70° |
| 2026-05-08 00:33 | 50.04093 | 8.55328 | 352 ft | 13 kts | 70° |
| 2026-05-08 00:33 | 50.04126 | 8.55464 | 353 ft | 13 kts | 69° |
| 2026-05-08 00:33 | 50.04136 | 8.55570 | 353 ft | 9 kts | 134° |
| 2026-05-08 00:33 | 50.04082 | 8.55607 | 351 ft | 5 kts | 160° |
| 2026-05-08 00:34 | 50.04065 | 8.55617 | 350 ft | 0 kts | 160° |
| 2026-05-08 00:34 | 50.04064 | 8.55618 | 350 ft | 0 kts | 160° |